createdAt,value
2022-11-25T00:04:44.589Z,66.77
2022-11-25T00:09:50.094Z,92.47
2022-11-25T00:14:55.098Z,169.60
2022-11-25T00:20:02.109Z,136.20
2022-11-25T00:25:08.423Z,130.27
2022-11-25T00:30:14.419Z,133.12
2022-11-25T00:35:19.829Z,118.13
2022-11-25T00:40:25.171Z,125.13
2022-11-25T00:45:31.104Z,114.03
2022-11-25T00:50:36.638Z,114.97
2022-11-25T00:55:50.275Z,95.75
2022-11-25T01:00:55.468Z,78.03
2022-11-25T01:06:08.087Z,62.63
2022-11-25T01:11:16.160Z,59.17
2022-11-25T01:16:22.090Z,65.23
2022-11-25T01:21:30.392Z,59.90
2022-11-25T01:26:36.900Z,59.77
2022-11-25T01:31:42.050Z,74.70
2022-11-25T01:36:47.618Z,96.27
2022-11-25T01:41:53.045Z,79.53
2022-11-25T01:47:01.804Z,81.70
2022-11-25T01:52:10.573Z,80.07
2022-11-25T01:57:18.525Z,66.50
2022-11-25T02:02:24.514Z,71.10
2022-11-25T02:07:39.474Z,71.77
2022-11-25T02:12:48.565Z,82.15
2022-11-25T02:17:54.135Z,80.23
2022-11-25T02:23:08.620Z,69.90
2022-11-25T02:28:22.294Z,58.30
2022-11-25T02:33:28.155Z,59.50
2022-11-25T02:38:44.717Z,59.70
2022-11-25T02:43:50.612Z,56.50
2022-11-25T02:49:13.492Z,55.98
2022-11-25T02:54:05.790Z,56.35
2022-11-25T02:59:12.671Z,57.60
2022-11-25T03:04:18.381Z,58.17
2022-11-25T03:09:23.903Z,59.90
2022-11-25T03:14:29.658Z,74.50
2022-11-25T03:19:35.327Z,81.00
2022-11-25T03:24:40.292Z,64.00
2022-11-25T03:29:45.465Z,59.20
2022-11-25T03:34:50.347Z,58.30
2022-11-25T03:39:55.255Z,58.73
2022-11-25T03:45:00.509Z,80.27
2022-11-25T03:50:06.600Z,73.47
2022-11-25T03:55:14.096Z,60.40
2022-11-25T04:00:19.665Z,57.60
2022-11-25T04:05:24.601Z,62.80
2022-11-25T04:10:30.043Z,56.80
2022-11-25T04:15:35.754Z,51.05
2022-11-25T04:20:41.220Z,52.27
2022-11-25T04:25:46.794Z,58.50
2022-11-25T04:30:51.751Z,53.93
2022-11-25T04:35:56.811Z,63.07
2022-11-25T04:41:02.720Z,53.33
2022-11-25T04:46:15.689Z,57.87
2022-11-25T04:51:15.278Z,147.67
2022-11-25T04:56:21.890Z,80.53
2022-11-25T05:01:27.098Z,58.20
2022-11-25T05:06:33.441Z,55.80
2022-11-25T05:11:39.348Z,52.53
2022-11-25T05:16:44.384Z,48.23
2022-11-25T05:21:50.050Z,46.73
2022-11-25T05:26:55.584Z,46.43
2022-11-25T05:32:00.894Z,44.93
2022-11-25T05:37:06.969Z,31.30
2022-11-25T05:42:12.018Z,44.80
2022-11-25T05:47:16.926Z,47.43
2022-11-25T05:52:21.822Z,46.20
2022-11-25T05:57:29.201Z,51.37
2022-11-25T06:02:34.745Z,50.50
2022-11-25T06:07:40.515Z,49.07
2022-11-25T06:12:46.345Z,55.17
2022-11-25T06:17:52.050Z,47.75
2022-11-25T06:22:59.769Z,46.95
2022-11-25T06:28:12.726Z,45.77
2022-11-25T06:33:13.667Z,45.70
2022-11-25T06:38:19.214Z,47.20
2022-11-25T06:43:24.116Z,45.47
2022-11-25T06:48:30.403Z,45.27
2022-11-25T06:53:36.995Z,44.48
2022-11-25T06:58:43.254Z,45.08
2022-11-25T07:03:50.082Z,46.13
2022-11-25T07:08:55.753Z,52.48
2022-11-25T07:14:06.793Z,52.57
2022-11-25T07:19:13.922Z,60.40
2022-11-25T07:24:19.213Z,93.80
2022-11-25T07:34:31.848Z,54.70
2022-11-25T07:39:37.328Z,51.63
2022-11-25T07:44:43.289Z,53.05
2022-11-25T07:49:48.155Z,54.93
2022-11-25T07:54:54.868Z,65.07
2022-11-25T07:59:59.783Z,63.70
2022-11-25T08:05:05.425Z,81.73
2022-11-25T08:10:11.066Z,75.10
2022-11-25T08:15:16.077Z,60.03
2022-11-25T08:20:21.738Z,56.20
2022-11-25T08:25:26.857Z,74.80
2022-11-25T08:30:31.743Z,92.57
2022-11-25T08:35:39.016Z,87.63
2022-11-25T08:40:45.985Z,79.87
2022-11-25T08:45:51.697Z,76.95
2022-11-25T08:50:57.010Z,77.80
2022-11-25T08:56:02.350Z,90.17
2022-11-25T09:01:08.139Z,72.90
2022-11-25T09:06:14.183Z,60.40
2022-11-25T09:11:20.336Z,59.00
2022-11-25T09:16:26.957Z,58.92
2022-11-25T09:26:38.649Z,60.43
2022-11-25T09:31:46.263Z,65.10
2022-11-25T09:36:52.056Z,62.10
2022-11-25T09:42:26.370Z,78.43
2022-11-25T09:47:34.970Z,72.47
2022-11-25T09:53:04.660Z,69.85
2022-11-25T09:58:35.102Z,73.80
2022-11-25T10:03:53.034Z,112.57
2022-11-25T10:09:04.126Z,86.17
2022-11-25T10:14:20.764Z,77.03
2022-11-25T10:19:31.731Z,77.50
2022-11-25T10:24:41.195Z,80.20
2022-11-25T10:29:45.760Z,82.73
2022-11-25T10:34:56.826Z,94.63
2022-11-25T10:40:02.213Z,97.97
2022-11-25T10:45:09.580Z,88.63
2022-11-25T10:50:52.580Z,68.87
2022-11-25T10:56:06.502Z,67.23
2022-11-25T11:01:23.790Z,64.07
2022-11-25T11:06:35.041Z,61.80
2022-11-25T11:11:48.384Z,53.37
2022-11-25T11:16:55.995Z,55.97
2022-11-25T11:22:18.403Z,58.10
2022-11-25T11:27:25.843Z,56.83
2022-11-25T11:32:31.239Z,60.43
2022-11-25T11:37:48.557Z,61.57
2022-11-25T11:43:06.816Z,62.03
2022-11-25T11:48:29.796Z,58.90
2022-11-25T11:53:58.055Z,57.97
2022-11-25T11:59:20.886Z,55.97
2022-11-25T12:04:43.960Z,52.03
2022-11-25T12:09:57.838Z,52.13
2022-11-25T12:15:09.077Z,52.53
2022-11-25T12:20:39.118Z,50.88
2022-11-25T12:25:45.520Z,52.40
2022-11-25T12:31:04.718Z,51.90
2022-11-25T12:36:13.791Z,51.70
2022-11-25T12:41:41.100Z,52.40
2022-11-25T12:46:54.983Z,48.60
2022-11-25T12:52:22.688Z,46.73
2022-11-25T12:57:49.154Z,46.03
2022-11-25T13:03:13.772Z,45.53
2022-11-25T13:08:38.733Z,46.00
2022-11-25T13:13:50.142Z,46.83
2022-11-25T13:18:57.328Z,46.40
2022-11-25T13:24:02.651Z,46.80
2022-11-25T13:29:17.093Z,47.27
2022-11-25T13:34:27.925Z,47.33
2022-11-25T13:39:38.522Z,47.10
2022-11-25T13:44:59.094Z,46.37
2022-11-25T13:50:11.944Z,47.30
2022-11-25T13:55:21.229Z,47.90
2022-11-25T14:00:38.368Z,48.77
2022-11-25T14:06:04.739Z,48.40
2022-11-25T14:11:13.197Z,47.23
2022-11-25T14:16:39.958Z,48.20
2022-11-25T14:22:13.107Z,47.20
2022-11-25T14:27:32.856Z,47.47
2022-11-25T14:32:57.699Z,47.57
2022-11-25T14:38:28.278Z,47.27
2022-11-25T14:43:37.669Z,47.78
2022-11-25T14:48:43.924Z,53.43
2022-11-25T14:53:51.334Z,52.37
2022-11-25T14:58:58.314Z,46.03
2022-11-25T15:04:15.383Z,45.63
2022-11-25T15:14:33.425Z,88.57
2022-11-25T15:19:40.133Z,77.97
2022-11-25T15:24:54.749Z,55.88
2022-11-25T15:29:58.615Z,49.25
2022-11-25T15:35:05.629Z,49.58
2022-11-25T15:40:37.968Z,50.23
2022-11-25T15:45:48.366Z,50.37
2022-11-25T15:50:54.437Z,51.17
2022-11-25T15:56:02.156Z,51.90
2022-11-25T16:01:22.720Z,53.47
2022-11-25T16:06:30.135Z,52.50
2022-11-25T16:11:38.812Z,53.13
2022-11-25T16:16:44.325Z,51.85
2022-11-25T16:21:56.813Z,52.60
2022-11-25T16:27:19.783Z,53.80
2022-11-25T16:32:27.849Z,53.13
2022-11-25T16:37:32.920Z,54.50
2022-11-25T16:42:39.654Z,51.80
2022-11-25T16:47:44.882Z,51.33
2022-11-25T16:52:50.901Z,53.38
2022-11-25T16:57:55.826Z,51.67
2022-11-25T17:03:01.490Z,52.83
2022-11-25T17:08:07.071Z,52.23
2022-11-25T17:13:15.864Z,58.70
2022-11-25T17:18:20.831Z,49.20
2022-11-25T17:23:27.140Z,52.13
2022-11-25T17:28:32.435Z,35.78
2022-11-25T17:33:38.127Z,82.47
2022-11-25T17:38:43.141Z,55.77
2022-11-25T17:43:52.165Z,55.47
2022-11-25T17:49:01.190Z,57.03
2022-11-25T17:54:06.851Z,57.83
2022-11-25T17:59:24.258Z,51.30
2022-11-25T18:04:38.504Z,56.83
2022-11-25T18:09:44.856Z,60.07
2022-11-25T18:14:49.917Z,78.07
2022-11-25T18:19:55.635Z,74.33
2022-11-25T18:25:05.263Z,111.37
2022-11-25T18:30:19.594Z,88.27
2022-11-25T18:35:36.179Z,51.77
2022-11-25T18:40:42.950Z,53.03
2022-11-25T18:45:48.936Z,52.90
2022-11-25T18:50:57.098Z,52.57
2022-11-25T18:56:02.174Z,52.20
2022-11-25T19:01:10.406Z,53.57
2022-11-25T19:06:15.483Z,53.70
2022-11-25T19:11:36.635Z,54.77
2022-11-25T19:16:43.278Z,58.55
2022-11-25T19:21:48.909Z,96.57
2022-11-25T19:26:56.595Z,74.80
2022-11-25T19:32:03.595Z,91.70
2022-11-25T19:37:12.336Z,64.67
2022-11-25T19:42:17.882Z,65.47
2022-11-25T19:47:27.449Z,103.00
2022-11-25T19:52:38.297Z,135.37
2022-11-25T19:57:43.524Z,131.22
2022-11-25T20:02:51.564Z,138.60
2022-11-25T20:07:57.083Z,102.63
2022-11-25T20:13:03.178Z,107.37
2022-11-25T20:18:12.596Z,130.07
2022-11-25T20:23:27.008Z,97.13
2022-11-25T20:28:33.030Z,113.60
2022-11-25T20:33:40.081Z,112.77
2022-11-25T20:38:48.247Z,122.90
2022-11-25T20:43:53.452Z,86.03
2022-11-25T20:49:02.410Z,73.60
2022-11-25T20:54:11.564Z,55.77
2022-11-25T20:59:22.481Z,132.30
2022-11-25T21:04:28.332Z,163.40
2022-11-25T21:09:36.876Z,152.43
2022-11-25T21:14:42.422Z,103.10
2022-11-25T21:19:47.690Z,77.83
2022-11-25T21:24:53.084Z,57.90
2022-11-25T21:29:58.431Z,82.07
2022-11-25T21:35:04.379Z,73.10
2022-11-25T21:40:14.971Z,100.37
2022-11-25T21:45:19.985Z,76.20
2022-11-25T21:50:26.819Z,58.83
2022-11-25T21:55:33.641Z,57.63
2022-11-25T22:00:39.759Z,51.85
2022-11-25T22:05:44.802Z,49.50
2022-11-25T22:10:52.912Z,58.33
2022-11-25T22:16:01.670Z,58.83
2022-11-25T22:21:06.708Z,82.03
2022-11-25T22:26:23.663Z,70.50
2022-11-25T22:31:30.059Z,65.85
2022-11-25T22:36:38.043Z,71.10
2022-11-25T22:41:48.825Z,63.90
2022-11-25T22:46:54.273Z,69.27
2022-11-25T22:51:59.719Z,64.97
2022-11-25T22:57:04.669Z,67.07
2022-11-25T23:02:13.132Z,93.57
2022-11-25T23:07:19.607Z,102.43
2022-11-25T23:12:25.348Z,80.80
2022-11-25T23:17:30.569Z,66.97
2022-11-25T23:22:35.894Z,55.63
2022-11-25T23:27:41.101Z,57.67
2022-11-25T23:32:46.961Z,53.20
2022-11-25T23:37:57.256Z,55.07
2022-11-25T23:43:03.465Z,56.30
2022-11-25T23:48:10.370Z,58.30
2022-11-25T23:53:24.136Z,60.23
2022-11-25T23:58:30.285Z,55.90
